SVA234 LSZH-OERK
Flight info
| Callsign | SVA234 |
|---|---|
| Flight time | N/A |
| Altitude | 33000 |
| Route | DEGES Z2 XEBIX L607 ELMEM N606 GIRIS DCT RISOM DCT ALIVO DCT NIVES DCT RUDIK DCT OKSIG DCT VEBAR DCT NISVA DCT USALI DCT RODIP DCT BELGI UN131 KULAR UT39 TOMBI M855 RASDA A16 CVO L315 HGD M872 WEJ L604 GAS G662 SIVIS |
| Aircraft | A320/M-SDE3FGHIRWY/LB1 |
Departure
| Time | 2026-04-26 11:16 |
|---|---|
| Airport | Zürich Airport (LSZH) |
Arrival
| Time | N/A |
|---|---|
| Airport | King Khalid International Airport (OERK) |
| Time | Latitude | Longitude | Altitude | Speed | Heading |
|---|---|---|---|---|---|
| 2026-04-26 10:42 | 47.46180 | 8.55436 | 1397 ft | 0 kts | 185° |
| 2026-04-26 11:06 | 47.46200 | 8.55439 | 1397 ft | 4 kts | 185° |
| 2026-04-26 11:06 | 47.46222 | 8.55442 | 1397 ft | 4 kts | 191° |
| 2026-04-26 11:07 | 47.46245 | 8.55456 | 1406 ft | 4 kts | 225° |
| 2026-04-26 11:07 | 47.46257 | 8.55488 | 1397 ft | 4 kts | 271° |
| 2026-04-26 11:07 | 47.46255 | 8.55522 | 1399 ft | 2 kts | 275° |
| 2026-04-26 11:07 | 47.46255 | 8.55524 | 1397 ft | 0 kts | 275° |
| 2026-04-26 11:09 | 47.46255 | 8.55522 | 1397 ft | 2 kts | 275° |
| 2026-04-26 11:09 | 47.46255 | 8.55504 | 1397 ft | 1 kts | 270° |
| 2026-04-26 11:09 | 47.46260 | 8.55443 | 1401 ft | 8 kts | 278° |
| 2026-04-26 11:10 | 47.46266 | 8.55372 | 1406 ft | 6 kts | 277° |
| 2026-04-26 11:10 | 47.46271 | 8.55312 | 1397 ft | 10 kts | 276° |
| 2026-04-26 11:10 | 47.46283 | 8.55155 | 1402 ft | 20 kts | 278° |
| 2026-04-26 11:10 | 47.46301 | 8.54920 | 1401 ft | 26 kts | 275° |
| 2026-04-26 11:11 | 47.46339 | 8.54721 | 1404 ft | 22 kts | 323° |
| 2026-04-26 11:11 | 47.46480 | 8.54625 | 1403 ft | 23 kts | 336° |
| 2026-04-26 11:11 | 47.46624 | 8.54528 | 1396 ft | 23 kts | 335° |
| 2026-04-26 11:11 | 47.46770 | 8.54431 | 1404 ft | 23 kts | 336° |
| 2026-04-26 11:12 | 47.46917 | 8.54334 | 1404 ft | 23 kts | 336° |
| 2026-04-26 11:12 | 47.47063 | 8.54240 | 1400 ft | 23 kts | 336° |
| 2026-04-26 11:12 | 47.47208 | 8.54145 | 1403 ft | 23 kts | 334° |
| 2026-04-26 11:12 | 47.47350 | 8.54043 | 1403 ft | 23 kts | 332° |
| 2026-04-26 11:13 | 47.47473 | 8.53952 | 1406 ft | 18 kts | 333° |
| 2026-04-26 11:13 | 47.47591 | 8.53880 | 1405 ft | 18 kts | 338° |
| 2026-04-26 11:13 | 47.47668 | 8.53827 | 1403 ft | 18 kts | 330° |
| 2026-04-26 11:13 | 47.47692 | 8.53704 | 1401 ft | 9 kts | 231° |
| 2026-04-26 11:14 | 47.47647 | 8.53659 | 1397 ft | 6 kts | 204° |
| 2026-04-26 11:14 | 47.47619 | 8.53641 | 1406 ft | 3 kts | 204° |
| 2026-04-26 11:14 | 47.47605 | 8.53632 | 1406 ft | 7 kts | 204° |
| 2026-04-26 11:14 | 47.47546 | 8.53612 | 1399 ft | 9 kts | 161° |
| 2026-04-26 11:15 | 47.47511 | 8.53638 | 1398 ft | 0 kts | 155° |
| 2026-04-26 11:15 | 47.47492 | 8.53651 | 1402 ft | 17 kts | 155° |
| 2026-04-26 11:15 | 47.47137 | 8.53899 | 1405 ft | 93 kts | 154° |
| 2026-04-26 11:15 | 47.46341 | 8.54449 | 1401 ft | 153 kts | 155° |
| 2026-04-26 11:16 | 47.45246 | 8.55179 | 1513 ft | 189 kts | 155° |
| 2026-04-26 11:16 | 47.44016 | 8.55961 | 2202 ft | 195 kts | 153° |
| 2026-04-26 11:16 | 47.42860 | 8.56938 | 2943 ft | 190 kts | 129° |
| 2026-04-26 11:16 | 47.42374 | 8.58737 | 3218 ft | 201 kts | 85° |
| 2026-04-26 11:17 | 47.42912 | 8.60692 | 3506 ft | 215 kts | 53° |
| 2026-04-26 11:17 | 47.43905 | 8.62379 | 3940 ft | 221 kts | 46° |
| 2026-04-26 11:17 | 47.44970 | 8.64029 | 4594 ft | 222 kts | 47° |
| 2026-04-26 11:17 | 47.45838 | 8.65919 | 5162 ft | 227 kts | 71° |
| 2026-04-26 11:18 | 47.46192 | 8.68277 | 5525 ft | 243 kts | 82° |
| 2026-04-26 11:18 | 47.46365 | 8.70804 | 6010 ft | 255 kts | 85° |
| 2026-04-26 11:18 | 47.46473 | 8.73504 | 6419 ft | 269 kts | 86° |
| 2026-04-26 11:18 | 47.46558 | 8.76293 | 7058 ft | 274 kts | 86° |
| 2026-04-26 11:19 | 47.46640 | 8.79129 | 7745 ft | 278 kts | 87° |
| 2026-04-26 11:19 | 47.46688 | 8.82005 | 8396 ft | 282 kts | 93° |
| 2026-04-26 11:19 | 47.46354 | 8.84875 | 9024 ft | 286 kts | 102° |
| 2026-04-26 11:19 | 47.45921 | 8.87765 | 9650 ft | 290 kts | 102° |
| 2026-04-26 11:20 | 47.45487 | 8.90693 | 10274 ft | 293 kts | 102° |
| 2026-04-26 11:20 | 47.45201 | 8.92661 | 10544 ft | 303 kts | 101° |
| 2026-04-26 11:20 | 47.44592 | 8.96940 | 10728 ft | 332 kts | 101° |
| 2026-04-26 11:20 | 47.44107 | 9.00379 | 10882 ft | 351 kts | 101° |
| 2026-04-26 11:21 | 47.43602 | 9.03951 | 11322 ft | 358 kts | 101° |
| 2026-04-26 11:21 | 47.43084 | 9.07569 | 11870 ft | 362 kts | 101° |
| 2026-04-26 11:21 | 47.42553 | 9.11231 | 12447 ft | 366 kts | 101° |
| 2026-04-26 11:21 | 47.42015 | 9.14919 | 13002 ft | 369 kts | 101° |
| 2026-04-26 11:22 | 47.41604 | 9.18667 | 13554 ft | 372 kts | 93° |
| 2026-04-26 11:22 | 47.41663 | 9.22490 | 14067 ft | 374 kts | 82° |
| 2026-04-26 11:22 | 47.42174 | 9.26267 | 14575 ft | 376 kts | 76° |
| 2026-04-26 11:22 | 47.42762 | 9.30047 | 15084 ft | 379 kts | 76° |
| 2026-04-26 11:23 | 47.43343 | 9.33858 | 15587 ft | 382 kts | 76° |
| 2026-04-26 11:23 | 47.43924 | 9.37697 | 16085 ft | 385 kts | 76° |
| 2026-04-26 11:23 | 47.44506 | 9.41573 | 16564 ft | 388 kts | 76° |
| 2026-04-26 11:23 | 47.45092 | 9.45476 | 17040 ft | 391 kts | 76° |
| 2026-04-26 11:24 | 47.45679 | 9.49407 | 17498 ft | 393 kts | 76° |
| 2026-04-26 11:24 | 47.46270 | 9.53360 | 17955 ft | 395 kts | 76° |
| 2026-04-26 11:24 | 47.46850 | 9.57291 | 18371 ft | 398 kts | 78° |
| 2026-04-26 11:24 | 47.47140 | 9.61424 | 18792 ft | 402 kts | 89° |
| 2026-04-26 11:25 | 47.46991 | 9.65563 | 19174 ft | 405 kts | 94° |
| 2026-04-26 11:25 | 47.46760 | 9.69729 | 19554 ft | 408 kts | 94° |
| 2026-04-26 11:25 | 47.46531 | 9.73859 | 19935 ft | 410 kts | 94° |
| 2026-04-26 11:25 | 47.46295 | 9.78079 | 20310 ft | 413 kts | 94° |
| 2026-04-26 11:26 | 47.46059 | 9.82324 | 20677 ft | 416 kts | 94° |
| 2026-04-26 11:26 | 47.45820 | 9.86595 | 21043 ft | 418 kts | 94° |
| 2026-04-26 11:26 | 47.45578 | 9.90892 | 21402 ft | 421 kts | 94° |
| 2026-04-26 11:26 | 47.45332 | 9.95216 | 21751 ft | 424 kts | 94° |
| 2026-04-26 11:27 | 47.45085 | 9.99563 | 22097 ft | 426 kts | 94° |
| 2026-04-26 11:27 | 47.44837 | 10.03937 | 22430 ft | 428 kts | 94° |
| 2026-04-26 11:27 | 47.44589 | 10.08331 | 22753 ft | 431 kts | 94° |
| 2026-04-26 11:27 | 47.44335 | 10.12751 | 23073 ft | 433 kts | 94° |
| 2026-04-26 11:28 | 47.44073 | 10.17202 | 23397 ft | 436 kts | 95° |
| 2026-04-26 11:28 | 47.43569 | 10.21626 | 23714 ft | 438 kts | 100° |
| 2026-04-26 11:28 | 47.42965 | 10.26053 | 23980 ft | 441 kts | 100° |
| 2026-04-26 11:28 | 47.42361 | 10.30500 | 24272 ft | 443 kts | 100° |
| 2026-04-26 11:29 | 47.41758 | 10.34972 | 24577 ft | 445 kts | 100° |
| 2026-04-26 11:29 | 47.41023 | 10.39414 | 24850 ft | 448 kts | 108° |
| 2026-04-26 11:29 | 47.39767 | 10.43626 | 25144 ft | 450 kts | 119° |
| 2026-04-26 11:29 | 47.38002 | 10.47441 | 25402 ft | 452 kts | 130° |
| 2026-04-26 11:30 | 47.35788 | 10.50739 | 25665 ft | 453 kts | 141° |
| 2026-04-26 11:30 | 47.34085 | 10.52603 | 25860 ft | 453 kts | 148° |
| 2026-04-26 11:30 | 47.30425 | 10.55612 | 26216 ft | 455 kts | 152° |
| 2026-04-26 11:30 | 47.27635 | 10.57819 | 26490 ft | 456 kts | 152° |
| 2026-04-26 11:31 | 47.24832 | 10.60036 | 26756 ft | 458 kts | 152° |
| 2026-04-26 11:31 | 47.22022 | 10.62256 | 27006 ft | 459 kts | 152° |
| 2026-04-26 11:31 | 47.19199 | 10.64482 | 27249 ft | 461 kts | 153° |
| 2026-04-26 11:31 | 47.16319 | 10.66567 | 27492 ft | 462 kts | 159° |
| 2026-04-26 11:32 | 47.13309 | 10.68234 | 27729 ft | 462 kts | 161° |
| 2026-04-26 11:32 | 47.10291 | 10.69880 | 27948 ft | 464 kts | 160° |
| 2026-04-26 11:32 | 47.07260 | 10.71538 | 28168 ft | 465 kts | 160° |
| 2026-04-26 11:32 | 47.04226 | 10.73197 | 28383 ft | 467 kts | 160° |
| 2026-04-26 11:33 | 47.01182 | 10.74864 | 28586 ft | 468 kts | 160° |
| 2026-04-26 11:33 | 46.98136 | 10.76565 | 28802 ft | 469 kts | 160° |
| 2026-04-26 11:33 | 46.95087 | 10.78292 | 29010 ft | 471 kts | 160° |
| 2026-04-26 11:33 | 46.92035 | 10.80028 | 29201 ft | 471 kts | 160° |
| 2026-04-26 11:34 | 46.88980 | 10.81767 | 29470 ft | 471 kts | 160° |
| 2026-04-26 11:34 | 46.85933 | 10.83495 | 29754 ft | 469 kts | 160° |
| 2026-04-26 11:34 | 46.82917 | 10.85307 | 30017 ft | 469 kts | 154° |
| 2026-04-26 11:34 | 46.80112 | 10.87735 | 30272 ft | 469 kts | 144° |
| 2026-04-26 11:35 | 46.77622 | 10.90816 | 30523 ft | 470 kts | 134° |
| 2026-04-26 11:35 | 46.75524 | 10.94459 | 30777 ft | 469 kts | 124° |
| 2026-04-26 11:35 | 46.73871 | 10.98552 | 31012 ft | 469 kts | 115° |
| 2026-04-26 11:35 | 46.72950 | 11.01393 | 31165 ft | 468 kts | 115° |
| 2026-04-26 11:36 | 46.71081 | 11.07122 | 31472 ft | 468 kts | 115° |
| 2026-04-26 11:36 | 46.69675 | 11.11389 | 31704 ft | 467 kts | 115° |
| 2026-04-26 11:36 | 46.68267 | 11.15652 | 31925 ft | 467 kts | 115° |
| 2026-04-26 11:36 | 46.66860 | 11.19909 | 32157 ft | 466 kts | 115° |
| 2026-04-26 11:37 | 46.65457 | 11.24156 | 32394 ft | 466 kts | 115° |
| 2026-04-26 11:37 | 46.64054 | 11.28397 | 32615 ft | 465 kts | 115° |
| 2026-04-26 11:37 | 46.62651 | 11.32640 | 32818 ft | 465 kts | 115° |